createdAt,value
2019-01-11T00:00:44.521Z,2.00
2019-01-11T00:02:46.289Z,2.10
2019-01-11T00:04:48.006Z,2.10
2019-01-11T00:06:49.824Z,2.10
2019-01-11T00:08:51.761Z,2.10
2019-01-11T00:10:53.873Z,2.10
2019-01-11T00:12:55.611Z,2.10
2019-01-11T00:14:57.616Z,2.20
2019-01-11T00:16:59.444Z,2.20
2019-01-11T00:19:06.946Z,2.20
2019-01-11T00:21:05.207Z,2.20
2019-01-11T00:23:06.959Z,2.20
2019-01-11T00:25:09.031Z,2.20
2019-01-11T00:27:10.765Z,2.20
2019-01-11T00:29:12.580Z,2.20
2019-01-11T00:31:14.324Z,2.20
2019-01-11T00:33:16.078Z,2.30
2019-01-11T00:35:17.830Z,2.30
2019-01-11T00:37:19.682Z,2.30
2019-01-11T00:39:22.530Z,2.30
2019-01-11T00:41:24.338Z,2.30
2019-01-11T00:43:26.068Z,2.30
2019-01-11T00:45:27.815Z,2.30
2019-01-11T00:47:29.823Z,2.30
2019-01-11T00:49:31.791Z,2.40
2019-01-11T00:51:33.802Z,2.40
2019-01-11T00:53:35.534Z,2.40
2019-01-11T00:55:37.250Z,2.30
2019-01-11T00:57:39.091Z,2.40
2019-01-11T00:59:41.022Z,2.40
2019-01-11T01:01:42.854Z,2.40
2019-01-11T01:03:44.683Z,2.40
2019-01-11T01:05:46.629Z,2.50
2019-01-11T01:07:48.952Z,2.50
2019-01-11T01:09:50.783Z,2.50
2019-01-11T01:11:52.503Z,2.50
2019-01-11T01:13:54.670Z,2.50
2019-01-11T01:15:56.598Z,2.50
2019-01-11T01:17:58.346Z,2.50
2019-01-11T01:20:00.236Z,2.50
2019-01-11T01:22:02.514Z,2.50
2019-01-11T01:24:04.531Z,2.50
2019-01-11T01:26:06.686Z,2.50
2019-01-11T01:28:08.647Z,2.50
2019-01-11T01:30:13.320Z,2.50
2019-01-11T01:32:15.464Z,2.50
2019-01-11T01:34:17.190Z,2.60
2019-01-11T01:36:19.177Z,2.60
2019-01-11T01:38:21.014Z,2.60
2019-01-11T01:40:22.857Z,2.60
2019-01-11T01:42:24.666Z,2.60
2019-01-11T01:44:26.464Z,2.60
2019-01-11T01:46:28.343Z,2.60
2019-01-11T01:48:30.196Z,2.70
2019-01-11T01:50:32.034Z,2.70
2019-01-11T01:52:33.838Z,2.70
2019-01-11T01:54:35.650Z,2.70
2019-01-11T01:56:37.518Z,2.70
2019-01-11T01:58:39.442Z,2.80
2019-01-11T02:00:41.550Z,2.70
2019-01-11T02:02:43.591Z,2.80
2019-01-11T02:04:45.299Z,2.70
2019-01-11T02:06:47.026Z,2.80
2019-01-11T02:08:48.780Z,2.80
2019-01-11T02:10:50.952Z,2.80
2019-01-11T02:12:52.674Z,2.80
2019-01-11T02:14:54.427Z,2.80
2019-01-11T02:16:56.164Z,2.80
2019-01-11T02:18:57.907Z,2.80
2019-01-11T02:20:59.742Z,2.80
2019-01-11T02:23:01.554Z,2.80
2019-01-11T02:25:03.811Z,2.80
2019-01-11T02:27:05.551Z,2.90
2019-01-11T02:29:07.466Z,2.90
2019-01-11T02:31:09.290Z,2.90
2019-01-11T02:33:11.024Z,2.90
2019-01-11T02:35:12.779Z,2.90
2019-01-11T02:37:14.510Z,2.90
2019-01-11T02:39:16.238Z,2.90
2019-01-11T02:41:17.962Z,3.00
2019-01-11T02:43:19.683Z,3.00
2019-01-11T02:45:21.610Z,3.00
2019-01-11T02:47:23.644Z,3.00
2019-01-11T02:49:25.427Z,3.00
2019-01-11T02:51:27.183Z,3.00
2019-01-11T02:53:28.926Z,3.10
2019-01-11T02:55:30.666Z,3.10
2019-01-11T02:57:32.403Z,3.00
2019-01-11T02:59:34.147Z,3.10
2019-01-11T03:01:35.956Z,3.10
2019-01-11T03:03:37.788Z,3.10
2019-01-11T03:05:39.830Z,3.20
2019-01-11T03:07:41.982Z,3.10
2019-01-11T03:09:43.833Z,3.20
2019-01-11T03:11:45.568Z,3.20
2019-01-11T03:13:47.290Z,3.30
2019-01-11T03:15:49.110Z,3.20
2019-01-11T03:17:50.951Z,3.20
2019-01-11T03:19:52.678Z,3.20
2019-01-11T03:21:54.408Z,3.20
2019-01-11T03:23:56.444Z,3.30
2019-01-11T03:25:58.175Z,3.30
2019-01-11T03:28:00.016Z,3.20
2019-01-11T03:30:02.478Z,3.30
2019-01-11T03:32:04.406Z,3.30
2019-01-11T03:34:06.346Z,3.30
2019-01-11T03:36:08.493Z,3.30
2019-01-11T03:38:10.327Z,3.40
2019-01-11T03:40:13.177Z,3.40
2019-01-11T03:42:14.910Z,3.40
2019-01-11T03:44:16.646Z,3.40
2019-01-11T03:46:18.384Z,3.40
2019-01-11T03:48:20.359Z,3.40
2019-01-11T03:50:23.120Z,3.40
2019-01-11T03:52:24.843Z,3.40
2019-01-11T03:54:26.701Z,3.30
2019-01-11T03:56:28.537Z,3.40
2019-01-11T03:58:30.367Z,3.40
2019-01-11T04:00:32.267Z,3.40
2019-01-11T04:02:34.111Z,3.40
2019-01-11T04:04:35.829Z,3.40
2019-01-11T04:06:37.934Z,3.40
2019-01-11T04:08:40.163Z,3.50
2019-01-11T04:10:42.085Z,3.40
2019-01-11T04:12:44.046Z,3.40
2019-01-11T04:14:45.899Z,3.50
2019-01-11T04:16:47.618Z,3.50
2019-01-11T04:19:00.031Z,3.50
2019-01-11T04:21:01.903Z,3.50
2019-01-11T04:23:03.833Z,3.50
2019-01-11T04:25:07.131Z,3.60
2019-01-11T04:27:08.981Z,3.50
2019-01-11T04:29:10.884Z,3.50
2019-01-11T04:31:12.634Z,3.60
2019-01-11T04:33:14.443Z,3.60
2019-01-11T04:35:16.683Z,3.70
2019-01-11T04:37:18.593Z,3.70
2019-01-11T04:39:20.336Z,3.70
2019-01-11T04:41:22.392Z,3.70
2019-01-11T04:43:24.290Z,3.70
2019-01-11T04:45:26.027Z,3.70
2019-01-11T04:47:27.867Z,3.70
2019-01-11T04:49:29.614Z,3.70
2019-01-11T04:51:31.347Z,3.70
2019-01-11T04:53:33.098Z,3.80
2019-01-11T04:55:34.929Z,3.80
2019-01-11T04:57:37.098Z,3.80
2019-01-11T04:59:38.963Z,3.80
2019-01-11T05:01:41.132Z,3.90
2019-01-11T05:03:42.984Z,3.90
2019-01-11T05:05:44.712Z,3.90
2019-01-11T05:07:46.559Z,3.90
2019-01-11T05:09:49.026Z,3.90
2019-01-11T05:11:51.114Z,3.90
2019-01-11T05:13:55.582Z,3.90
2019-01-11T05:15:57.442Z,4.00
2019-01-11T05:17:59.142Z,4.00
2019-01-11T05:20:00.874Z,4.00
2019-01-11T05:22:03.042Z,4.00
2019-01-11T05:24:04.983Z,4.00
2019-01-11T05:26:06.934Z,4.10
2019-01-11T05:28:08.722Z,4.10
2019-01-11T05:30:16.040Z,4.10
2019-01-11T05:32:17.874Z,4.10
2019-01-11T05:34:19.906Z,4.20
2019-01-11T05:36:21.851Z,4.20
2019-01-11T05:38:23.684Z,4.20
2019-01-11T05:40:25.434Z,4.30
2019-01-11T05:42:27.146Z,4.30
2019-01-11T05:44:29.003Z,4.40
2019-01-11T05:46:31.056Z,4.40
2019-01-11T05:48:32.783Z,4.50
2019-01-11T05:50:34.513Z,4.50
2019-01-11T05:52:36.262Z,4.50
2019-01-11T05:54:38.079Z,4.60
2019-01-11T05:56:40.107Z,4.60
2019-01-11T05:58:57.306Z,4.60
2019-01-11T06:00:59.375Z,4.70
2019-01-11T06:03:01.117Z,4.60
2019-01-11T06:05:06.989Z,4.70
2019-01-11T06:07:19.838Z,4.70
2019-01-11T06:09:21.710Z,4.80
2019-01-11T06:11:23.428Z,4.80
2019-01-11T06:13:25.377Z,4.90
2019-01-11T06:15:27.093Z,4.90
2019-01-11T06:17:28.858Z,4.90
2019-01-11T06:19:30.796Z,4.90
2019-01-11T06:21:32.495Z,5.00
2019-01-11T06:23:34.250Z,5.00
2019-01-11T06:25:35.988Z,4.90
2019-01-11T06:27:40.681Z,5.00
2019-01-11T06:29:42.457Z,5.00
2019-01-11T06:31:44.182Z,5.00
2019-01-11T06:33:45.914Z,5.10
2019-01-11T06:35:49.593Z,5.10
2019-01-11T06:37:51.521Z,5.10
2019-01-11T06:39:53.331Z,5.10
2019-01-11T06:42:00.570Z,5.10
2019-01-11T06:44:02.291Z,5.10
2019-01-11T06:46:03.990Z,5.10
2019-01-11T06:48:13.923Z,5.10
2019-01-11T06:50:15.851Z,5.10
2019-01-11T06:52:17.579Z,5.20
2019-01-11T06:54:19.346Z,5.10
2019-01-11T06:56:21.085Z,5.20
2019-01-11T06:58:22.827Z,5.10
2019-01-11T07:00:24.611Z,5.10
2019-01-11T07:02:26.427Z,5.20
2019-01-11T07:04:28.312Z,5.20
2019-01-11T07:06:30.088Z,5.20
2019-01-11T07:08:31.825Z,5.20
2019-01-11T07:10:33.650Z,5.20
2019-01-11T07:12:35.414Z,5.30
2019-01-11T07:14:37.207Z,5.30
2019-01-11T07:16:39.047Z,5.30
2019-01-11T07:18:40.865Z,5.30
2019-01-11T07:20:43.209Z,5.30
2019-01-11T07:22:47.160Z,5.40
2019-01-11T07:24:48.991Z,5.40
2019-01-11T07:26:51.081Z,5.40
2019-01-11T07:28:52.825Z,5.40
2019-01-11T07:31:07.222Z,5.50
2019-01-11T07:33:10.938Z,5.40
2019-01-11T07:35:12.914Z,5.50
2019-01-11T07:37:14.682Z,5.50
2019-01-11T07:39:45.039Z,5.60
2019-01-11T07:41:46.860Z,5.60
2019-01-11T07:43:48.586Z,5.60
2019-01-11T07:45:50.315Z,5.70
2019-01-11T07:47:52.063Z,5.70
2019-01-11T07:50:19.912Z,5.80
2019-01-11T07:52:36.943Z,5.80
2019-01-11T07:54:38.784Z,5.80
2019-01-11T07:56:40.522Z,5.80
2019-01-11T07:58:42.266Z,5.80
2019-01-11T08:00:44.334Z,5.80
2019-01-11T08:02:48.126Z,5.80
2019-01-11T08:04:49.850Z,5.90
2019-01-11T08:06:51.576Z,5.90
2019-01-11T08:08:58.231Z,5.90
2019-01-11T08:11:01.372Z,6.00
2019-01-11T08:13:03.323Z,6.00
2019-01-11T08:15:05.575Z,6.00
2019-01-11T08:17:07.390Z,6.00
2019-01-11T08:19:09.222Z,6.00
2019-01-11T08:21:11.351Z,6.00
2019-01-11T08:23:13.218Z,6.10
2019-01-11T08:25:14.990Z,6.10
2019-01-11T08:27:20.578Z,6.10
2019-01-11T08:29:22.438Z,6.20
2019-01-11T08:31:24.270Z,6.20
2019-01-11T08:33:25.995Z,6.20
2019-01-11T08:35:29.107Z,6.20
2019-01-11T08:37:31.187Z,6.20
2019-01-11T08:39:32.986Z,6.20
2019-01-11T08:41:34.838Z,6.20
2019-01-11T08:43:36.681Z,6.30
2019-01-11T08:45:38.439Z,6.30
2019-01-11T08:47:40.390Z,6.40
2019-01-11T08:49:42.150Z,6.40
2019-01-11T08:51:44.584Z,6.30
2019-01-11T08:53:46.439Z,6.40
2019-01-11T08:55:48.218Z,6.40
2019-01-11T08:57:49.955Z,6.40
2019-01-11T08:59:51.801Z,6.50
2019-01-11T09:01:53.577Z,6.50
2019-01-11T09:03:55.305Z,6.50
2019-01-11T09:05:57.035Z,6.50
2019-01-11T09:07:59.016Z,6.50
2019-01-11T09:10:00.758Z,6.50
2019-01-11T09:12:03.315Z,6.50
2019-01-11T09:14:05.883Z,6.50
2019-01-11T09:16:07.845Z,6.50
2019-01-11T09:18:12.822Z,6.50
2019-01-11T09:20:14.955Z,6.60
2019-01-11T09:22:16.790Z,6.50
2019-01-11T09:24:18.508Z,6.50
2019-01-11T09:26:20.273Z,6.50
2019-01-11T09:28:22.130Z,6.60
2019-01-11T09:30:23.878Z,6.60
2019-01-11T09:32:25.835Z,6.60
2019-01-11T09:34:27.575Z,6.60
2019-01-11T09:36:29.406Z,6.60
2019-01-11T09:38:31.139Z,6.60
2019-01-11T09:40:33.106Z,6.70
2019-01-11T09:42:34.932Z,6.60
2019-01-11T09:44:36.658Z,6.60
2019-01-11T09:46:38.594Z,6.70
2019-01-11T09:48:40.450Z,6.70
2019-01-11T09:50:42.187Z,6.70
2019-01-11T09:52:44.003Z,6.70
2019-01-11T09:54:46.107Z,6.80
2019-01-11T09:56:47.994Z,6.80
2019-01-11T09:58:49.734Z,6.80
2019-01-11T10:00:51.492Z,6.80
2019-01-11T10:03:04.914Z,6.80
2019-01-11T10:05:08.419Z,6.80
2019-01-11T10:07:23.914Z,6.80
2019-01-11T10:09:25.643Z,6.90
2019-01-11T10:11:27.358Z,6.90
2019-01-11T10:13:29.102Z,6.90
2019-01-11T10:15:30.935Z,7.10
2019-01-11T10:17:32.762Z,7.30
2019-01-11T10:19:34.506Z,7.40
2019-01-11T10:21:36.354Z,7.50
2019-01-11T10:23:38.230Z,7.70
2019-01-11T10:25:40.165Z,7.70
2019-01-11T10:27:41.974Z,7.60
2019-01-11T10:29:43.738Z,7.60
2019-01-11T10:31:45.891Z,7.50
2019-01-11T10:33:47.632Z,7.50
2019-01-11T10:35:49.871Z,7.40
2019-01-11T10:37:51.580Z,7.40
2019-01-11T10:39:53.305Z,7.40
2019-01-11T10:41:55.162Z,7.40
2019-01-11T10:43:56.874Z,7.40
2019-01-11T10:45:59.463Z,7.40
2019-01-11T10:48:01.276Z,7.40
2019-01-11T10:50:04.482Z,7.30
2019-01-11T10:52:06.306Z,7.30
2019-01-11T10:54:14.539Z,7.30
2019-01-11T10:56:16.266Z,7.30
2019-01-11T10:58:18.193Z,7.30
2019-01-11T11:00:26.814Z,7.30
2019-01-11T11:02:28.640Z,7.30
2019-01-11T11:04:30.486Z,7.30
2019-01-11T11:06:32.480Z,7.20
2019-01-11T11:08:34.219Z,7.20
2019-01-11T11:10:36.196Z,7.20
2019-01-11T11:12:38.038Z,7.30
2019-01-11T11:14:39.770Z,7.30
2019-01-11T11:16:41.492Z,7.30
2019-01-11T11:18:43.252Z,7.30
2019-01-11T11:25:08.494Z,7.30
2019-01-11T11:27:10.359Z,7.20
2019-01-11T11:29:12.262Z,7.20
2019-01-11T11:31:14.000Z,7.30
2019-01-11T11:33:15.819Z,7.30
2019-01-11T11:35:17.551Z,7.30
2019-01-11T11:37:19.707Z,7.40
2019-01-11T11:39:21.627Z,7.40
2019-01-11T11:41:24.224Z,7.30
2019-01-11T11:43:25.934Z,7.30
2019-01-11T11:45:27.663Z,7.40
2019-01-11T11:47:29.587Z,7.40
2019-01-11T11:49:31.410Z,7.30
2019-01-11T11:51:33.182Z,7.30
2019-01-11T11:53:34.902Z,7.30
2019-01-11T11:55:36.722Z,7.30
2019-01-11T11:57:38.533Z,7.30
2019-01-11T11:59:40.335Z,7.20
2019-01-11T12:01:42.263Z,7.20
2019-01-11T12:03:44.536Z,7.20
2019-01-11T12:05:46.290Z,7.30
2019-01-11T12:07:48.118Z,7.20
2019-01-11T12:09:49.862Z,7.20
2019-01-11T12:11:51.740Z,7.30
2019-01-11T12:13:53.478Z,7.20
2019-01-11T12:15:55.350Z,7.30
2019-01-11T12:17:57.096Z,7.30
2019-01-11T12:19:58.889Z,7.30
2019-01-11T12:22:01.742Z,7.30
2019-01-11T12:24:03.827Z,7.20
2019-01-11T12:26:05.855Z,7.30
2019-01-11T12:28:07.603Z,7.30
2019-01-11T12:30:10.640Z,7.40
2019-01-11T12:32:12.356Z,7.40
2019-01-11T12:34:14.067Z,7.40
2019-01-11T12:36:15.918Z,7.40
2019-01-11T12:38:17.687Z,7.50
2019-01-11T12:40:19.499Z,7.50
2019-01-11T12:42:21.222Z,7.50
2019-01-11T12:44:22.939Z,7.50
2019-01-11T12:46:24.726Z,7.50
2019-01-11T12:48:26.450Z,7.60
2019-01-11T12:50:28.382Z,7.60
2019-01-11T12:52:30.350Z,7.60
2019-01-11T12:54:32.158Z,7.60
2019-01-11T12:56:33.875Z,7.60
2019-01-11T12:58:38.458Z,7.50
2019-01-11T13:00:40.394Z,7.50
2019-01-11T13:02:42.335Z,7.40
2019-01-11T13:04:44.178Z,7.50
2019-01-11T13:06:45.921Z,7.50
2019-01-11T13:08:47.834Z,7.50
2019-01-11T13:10:49.650Z,7.50
2019-01-11T13:12:51.484Z,7.40
2019-01-11T13:14:53.220Z,7.40
2019-01-11T13:16:55.070Z,7.50
2019-01-11T13:18:56.819Z,7.40
2019-01-11T13:20:58.826Z,7.40
2019-01-11T13:23:00.632Z,7.40
2019-01-11T13:25:03.358Z,7.40
2019-01-11T13:27:05.074Z,7.50
2019-01-11T13:29:06.947Z,7.50
2019-01-11T13:31:08.764Z,7.50
2019-01-11T13:33:10.593Z,7.50
2019-01-11T13:35:12.575Z,7.50
2019-01-11T13:37:14.398Z,7.60
2019-01-11T13:39:16.114Z,7.50
2019-01-11T13:41:17.934Z,7.50
2019-01-11T13:43:19.667Z,7.60
2019-01-11T13:45:22.517Z,7.50
2019-01-11T13:47:24.306Z,7.50
2019-01-11T13:49:26.243Z,7.50
2019-01-11T13:51:27.966Z,7.50
2019-01-11T13:53:29.883Z,7.50
2019-01-11T13:55:31.711Z,7.50
2019-01-11T13:57:33.437Z,7.50
2019-01-11T13:59:41.386Z,7.50
2019-01-11T14:01:38.832Z,7.50
2019-01-11T14:03:40.555Z,7.50
2019-01-11T14:05:42.742Z,7.50
2019-01-11T14:07:44.598Z,7.40
2019-01-11T14:09:46.439Z,7.50
2019-01-11T14:11:48.174Z,7.40
2019-01-11T14:13:50.384Z,7.40
2019-01-11T14:15:52.098Z,7.40
2019-01-11T14:17:53.938Z,7.40
2019-01-11T14:19:55.850Z,7.40
2019-01-11T14:21:57.942Z,7.40
2019-01-11T14:23:59.675Z,7.40
2019-01-11T14:26:01.403Z,7.40
2019-01-11T14:28:03.840Z,7.40
2019-01-11T14:30:06.718Z,7.40
2019-01-11T14:32:08.746Z,7.40
2019-01-11T14:34:10.583Z,7.40
2019-01-11T14:36:12.415Z,7.30
2019-01-11T14:38:14.514Z,7.40
2019-01-11T14:40:16.322Z,7.30
2019-01-11T14:42:18.060Z,7.30
2019-01-11T14:44:19.906Z,7.30
2019-01-11T14:46:21.630Z,7.30
2019-01-11T14:48:23.486Z,7.30
2019-01-11T14:50:25.542Z,7.30
2019-01-11T14:52:27.258Z,7.30
2019-01-11T14:54:29.165Z,7.20
2019-01-11T14:56:31.027Z,7.20
2019-01-11T14:58:32.910Z,7.20
2019-01-11T15:00:34.642Z,7.20
2019-01-11T15:02:36.402Z,7.20
2019-01-11T15:04:38.118Z,7.10
2019-01-11T15:06:39.846Z,7.10
2019-01-11T15:08:41.745Z,7.10
2019-01-11T15:10:43.451Z,7.10
2019-01-11T15:12:46.627Z,7.10
2019-01-11T15:14:48.370Z,7.10
2019-01-11T15:16:50.118Z,7.10
2019-01-11T15:18:51.847Z,7.10
2019-01-11T15:20:53.582Z,7.10
2019-01-11T15:22:55.295Z,7.00
2019-01-11T15:24:57.022Z,7.00
2019-01-11T15:26:58.787Z,7.10
2019-01-11T15:29:00.510Z,7.10
2019-01-11T15:31:02.430Z,7.00
2019-01-11T15:33:04.387Z,7.00
2019-01-11T15:35:06.382Z,7.00
2019-01-11T15:37:08.126Z,7.00
2019-01-11T15:39:09.969Z,7.00
2019-01-11T15:41:11.689Z,7.00
2019-01-11T15:43:13.426Z,7.00
2019-01-11T15:45:15.506Z,6.90
2019-01-11T15:47:17.226Z,6.90
2019-01-11T15:49:18.941Z,7.00
2019-01-11T15:51:23.790Z,7.00
2019-01-11T15:53:32.758Z,7.00
2019-01-11T15:55:34.465Z,7.00
2019-01-11T15:57:42.422Z,6.90
2019-01-11T15:59:59.356Z,7.00
2019-01-11T16:02:01.243Z,7.00
2019-01-11T16:04:06.167Z,7.00
2019-01-11T16:06:33.850Z,6.90
2019-01-11T16:08:51.308Z,6.90
2019-01-11T16:11:07.474Z,6.90
2019-01-11T16:13:25.187Z,6.90
2019-01-11T16:15:47.542Z,6.90
2019-01-11T16:17:49.788Z,6.90
2019-01-11T16:19:51.720Z,6.90
2019-01-11T16:21:53.450Z,6.90
2019-01-11T16:23:55.277Z,6.90
2019-01-11T16:25:57.996Z,6.90
2019-01-11T16:28:00.039Z,6.90
2019-01-11T16:30:02.258Z,6.90
2019-01-11T16:32:04.351Z,6.90
2019-01-11T16:34:06.092Z,6.90
2019-01-11T16:36:07.924Z,6.90
2019-01-11T16:38:09.988Z,6.90
2019-01-11T16:40:12.205Z,6.90
2019-01-11T16:42:13.927Z,6.90
2019-01-11T16:44:15.652Z,6.80
2019-01-11T16:46:18.565Z,6.80
2019-01-11T16:48:20.471Z,6.90
2019-01-11T16:50:22.183Z,6.90
2019-01-11T16:52:23.915Z,6.90
2019-01-11T16:54:25.734Z,6.90
2019-01-11T16:56:27.556Z,6.90
2019-01-11T16:58:29.302Z,6.90
2019-01-11T17:00:31.175Z,6.90
2019-01-11T17:02:36.621Z,6.80
2019-01-11T17:04:36.526Z,6.80
2019-01-11T17:06:38.358Z,6.80
2019-01-11T17:08:40.230Z,6.90
2019-01-11T17:10:42.581Z,6.90
2019-01-11T17:12:44.386Z,6.90
2019-01-11T17:14:46.142Z,6.80
2019-01-11T17:16:47.946Z,6.80
2019-01-11T17:18:49.778Z,6.80
2019-01-11T17:20:51.597Z,6.80
2019-01-11T17:22:53.463Z,6.90
2019-01-11T17:24:55.192Z,6.90
2019-01-11T17:26:57.014Z,6.80
2019-01-11T17:28:59.105Z,6.80
2019-01-11T17:31:00.997Z,6.80
2019-01-11T17:33:03.009Z,6.80
2019-01-11T17:35:05.010Z,6.80
2019-01-11T17:37:06.722Z,6.80
2019-01-11T17:39:08.439Z,6.80
2019-01-11T17:41:10.934Z,6.90
2019-01-11T17:43:12.858Z,6.90
2019-01-11T17:45:14.941Z,6.90
2019-01-11T17:47:16.729Z,6.90
2019-01-11T17:49:18.466Z,6.80
2019-01-11T17:51:20.440Z,6.80
2019-01-11T17:53:22.506Z,6.70
2019-01-11T17:55:24.796Z,6.80
2019-01-11T17:57:26.608Z,6.80
2019-01-11T17:59:28.330Z,6.80
2019-01-11T18:01:30.095Z,6.70
2019-01-11T18:03:31.862Z,6.70
2019-01-11T18:05:33.588Z,6.80
2019-01-11T18:07:35.711Z,6.80
2019-01-11T18:09:37.423Z,6.80
2019-01-11T18:11:39.195Z,6.70
2019-01-11T18:13:41.255Z,6.70
2019-01-11T18:15:42.987Z,6.70
2019-01-11T18:17:44.846Z,6.70
2019-01-11T18:19:46.582Z,6.70
2019-01-11T18:21:48.413Z,6.60
2019-01-11T18:23:50.512Z,6.60
2019-01-11T18:25:54.790Z,6.60
2019-01-11T18:27:56.496Z,6.60
2019-01-11T18:29:58.474Z,6.60
2019-01-11T18:32:00.231Z,6.50
2019-01-11T18:34:02.056Z,6.50
2019-01-11T18:36:03.898Z,6.50
2019-01-11T18:38:05.819Z,6.50
2019-01-11T18:40:10.980Z,6.40
2019-01-11T18:42:12.817Z,6.50
2019-01-11T18:44:14.530Z,6.40
2019-01-11T18:46:16.498Z,6.40
2019-01-11T18:48:18.235Z,6.40
2019-01-11T18:50:21.213Z,6.30
2019-01-11T18:52:23.050Z,6.30
2019-01-11T18:54:25.085Z,6.30
2019-01-11T18:56:26.831Z,6.30
2019-01-11T18:58:28.571Z,6.20
2019-01-11T19:00:30.512Z,6.30
2019-01-11T19:02:32.259Z,6.20
2019-01-11T19:04:34.195Z,6.30
2019-01-11T19:06:36.979Z,6.30
2019-01-11T19:08:38.724Z,6.30
2019-01-11T19:10:40.459Z,6.30
2019-01-11T19:12:42.395Z,6.30
2019-01-11T19:14:45.176Z,6.30
2019-01-11T19:16:47.003Z,6.20
2019-01-11T19:18:50.012Z,6.10
2019-01-11T19:20:52.215Z,6.20
2019-01-11T19:22:54.341Z,6.20
2019-01-11T19:24:56.054Z,6.20
2019-01-11T19:26:59.612Z,6.20
2019-01-11T19:29:01.596Z,6.10
2019-01-11T19:31:03.454Z,6.10
2019-01-11T19:33:05.661Z,6.10
2019-01-11T19:35:07.669Z,6.10
2019-01-11T19:37:09.754Z,6.10
2019-01-11T19:39:12.458Z,6.00
2019-01-11T19:41:14.518Z,6.00
2019-01-11T19:43:16.488Z,6.00
2019-01-11T19:45:18.968Z,6.00
2019-01-11T19:47:20.855Z,6.00
2019-01-11T19:49:22.814Z,6.00
2019-01-11T19:51:24.664Z,6.00
2019-01-11T19:53:27.736Z,6.00
2019-01-11T19:55:29.977Z,6.00
2019-01-11T19:57:32.205Z,6.00
2019-01-11T19:59:33.929Z,6.00
2019-01-11T20:01:37.190Z,6.00
2019-01-11T20:03:40.148Z,5.90
2019-01-11T20:05:42.134Z,5.90
2019-01-11T20:07:44.781Z,6.00
2019-01-11T20:09:46.649Z,6.00
2019-01-11T20:11:48.759Z,6.00
2019-01-11T20:13:50.731Z,6.00
2019-01-11T20:15:54.539Z,6.00
2019-01-11T20:17:56.613Z,6.00
2019-01-11T20:19:59.884Z,6.00
2019-01-11T20:22:01.776Z,5.90
2019-01-11T20:24:03.703Z,5.90
2019-01-11T20:26:05.844Z,5.90
2019-01-11T20:28:07.667Z,5.90
2019-01-11T20:30:11.719Z,5.90
2019-01-11T20:32:13.482Z,5.90
2019-01-11T20:34:15.426Z,5.90
2019-01-11T20:36:18.125Z,5.80
2019-01-11T20:38:20.284Z,5.80
2019-01-11T20:40:22.473Z,5.80
2019-01-11T20:42:24.400Z,5.80
2019-01-11T20:44:26.805Z,5.70
2019-01-11T20:46:28.732Z,5.80
2019-01-11T20:48:30.727Z,5.80
2019-01-11T20:50:32.717Z,5.80
2019-01-11T20:52:34.565Z,5.80
2019-01-11T20:54:36.672Z,5.80
2019-01-11T20:56:38.485Z,5.80
2019-01-11T20:58:40.207Z,5.80
2019-01-11T21:00:42.011Z,5.80
2019-01-11T21:02:46.743Z,5.80
2019-01-11T21:04:49.127Z,5.80
2019-01-11T21:06:50.858Z,5.80
2019-01-11T21:08:52.703Z,5.70
2019-01-11T21:10:54.461Z,5.70
2019-01-11T21:12:56.294Z,5.70
2019-01-11T21:15:10.727Z,5.70
2019-01-11T21:17:12.685Z,5.70
2019-01-11T21:19:37.883Z,5.70
2019-01-11T21:21:40.046Z,5.70
2019-01-11T21:23:48.470Z,5.70
2019-01-11T21:25:45.703Z,5.70
2019-01-11T21:27:47.628Z,5.70
2019-01-11T21:30:16.365Z,5.70
2019-01-11T21:32:18.635Z,5.70
2019-01-11T21:34:20.571Z,5.70
2019-01-11T21:36:22.572Z,5.60
2019-01-11T21:38:25.215Z,5.60
2019-01-11T21:40:27.030Z,5.60
2019-01-11T21:42:28.764Z,5.60
2019-01-11T21:44:31.919Z,5.70
2019-01-11T21:46:33.628Z,5.70
2019-01-11T21:48:35.671Z,5.70
2019-01-11T21:50:37.708Z,5.70
2019-01-11T21:52:39.822Z,5.70
2019-01-11T21:54:41.852Z,5.70
2019-01-11T21:56:43.838Z,5.70
2019-01-11T21:58:45.928Z,5.70
2019-01-11T22:00:48.954Z,5.70
2019-01-11T22:02:50.941Z,5.80
2019-01-11T22:04:53.015Z,5.70
2019-01-11T22:06:54.840Z,5.70
2019-01-11T22:08:56.755Z,5.80
2019-01-11T22:10:59.961Z,5.80
2019-01-11T22:13:01.900Z,5.80
2019-01-11T22:15:04.730Z,5.80
2019-01-11T22:17:06.610Z,5.80
2019-01-11T22:19:14.062Z,5.80
2019-01-11T22:21:16.511Z,5.80
2019-01-11T22:23:23.858Z,5.80
2019-01-11T22:25:22.326Z,5.80
2019-01-11T22:27:25.599Z,5.80
2019-01-11T22:29:32.020Z,5.80
2019-01-11T22:31:33.731Z,5.80
2019-01-11T22:34:12.033Z,5.80
2019-01-11T22:36:14.053Z,5.80
2019-01-11T22:38:15.758Z,5.80
2019-01-11T22:40:19.499Z,5.80
2019-01-11T22:42:21.354Z,5.80
2019-01-11T22:46:32.438Z,5.80
2019-01-11T22:48:34.261Z,5.80
2019-01-11T22:50:36.037Z,5.80
2019-01-11T22:52:40.604Z,5.80
2019-01-11T22:54:42.480Z,5.70
2019-01-11T22:56:44.391Z,5.80
2019-01-11T22:58:46.582Z,5.80
2019-01-11T23:01:00.873Z,5.80
2019-01-11T23:03:09.887Z,5.80
2019-01-11T23:05:13.000Z,5.70
2019-01-11T23:07:32.674Z,5.80
2019-01-11T23:10:02.329Z,5.80
2019-01-11T23:12:34.474Z,5.70
2019-01-11T23:14:36.365Z,5.80
2019-01-11T23:16:43.644Z,5.80
2019-01-11T23:18:46.640Z,5.80
2019-01-11T23:20:51.042Z,5.90
2019-01-11T23:22:53.091Z,6.00
2019-01-11T23:24:55.070Z,6.00
2019-01-11T23:26:56.798Z,6.00
2019-01-11T23:28:58.519Z,6.00
2019-01-11T23:31:00.470Z,6.00
2019-01-11T23:33:02.629Z,6.00
2019-01-11T23:35:04.726Z,6.00
2019-01-11T23:37:06.866Z,6.10
2019-01-11T23:39:08.798Z,6.10
2019-01-11T23:41:10.599Z,6.10
2019-01-11T23:43:12.355Z,6.10
2019-01-11T23:45:14.175Z,6.10
2019-01-11T23:47:15.882Z,6.10
2019-01-11T23:49:17.970Z,6.20
2019-01-11T23:51:19.925Z,6.20
2019-01-11T23:53:21.643Z,6.20
2019-01-11T23:55:23.371Z,6.20
2019-01-11T23:57:25.138Z,6.10
2019-01-11T23:59:26.858Z,6.20
